sensor_id;sensor_type;location;lat;lon;timestamp;pressure;altitude;pressure_sealevel;temperature;humidity
30554;BME280;17335;50.720;7.452;2022-09-12T00:01:20;99515.50;;;11.45;100.00
30554;BME280;17335;50.720;7.452;2022-09-12T00:03:47;99514.94;;;11.41;100.00
30554;BME280;17335;50.720;7.452;2022-09-12T00:06:17;99510.56;;;11.40;100.00
30554;BME280;17335;50.720;7.452;2022-09-12T00:08:48;99511.84;;;11.36;100.00
30554;BME280;17335;50.720;7.452;2022-09-12T00:11:15;99521.75;;;11.36;100.00
30554;BME280;17335;50.720;7.452;2022-09-12T00:13:42;99513.81;;;11.34;100.00
30554;BME280;17335;50.720;7.452;2022-09-12T00:16:21;99509.31;;;11.35;100.00
30554;BME280;17335;50.720;7.452;2022-09-12T00:18:48;99513.25;;;11.31;100.00
30554;BME280;17335;50.720;7.452;2022-09-12T00:21:16;99515.94;;;11.31;100.00
30554;BME280;17335;50.720;7.452;2022-09-12T00:23:44;99507.06;;;11.30;100.00
30554;BME280;17335;50.720;7.452;2022-09-12T00:26:11;99506.22;;;11.30;100.00
30554;BME280;17335;50.720;7.452;2022-09-12T00:28:38;99508.91;;;11.30;100.00
30554;BME280;17335;50.720;7.452;2022-09-12T00:31:18;99503.38;;;11.31;100.00
30554;BME280;17335;50.720;7.452;2022-09-12T00:33:45;99505.34;;;11.29;100.00
30554;BME280;17335;50.720;7.452;2022-09-12T00:36:18;99499.41;;;11.25;100.00
30554;BME280;17335;50.720;7.452;2022-09-12T00:38:46;99502.69;;;11.19;100.00
30554;BME280;17335;50.720;7.452;2022-09-12T00:41:26;99490.53;;;11.15;100.00
30554;BME280;17335;50.720;7.452;2022-09-12T00:43:58;99491.53;;;11.14;100.00
30554;BME280;17335;50.720;7.452;2022-09-12T00:46:40;99482.06;;;11.10;100.00
30554;BME280;17335;50.720;7.452;2022-09-12T00:49:25;99483.63;;;11.13;100.00
30554;BME280;17335;50.720;7.452;2022-09-12T00:52:07;99479.50;;;11.18;100.00
30554;BME280;17335;50.720;7.452;2022-09-12T00:55:02;99483.28;;;11.25;100.00
30554;BME280;17335;50.720;7.452;2022-09-12T00:57:35;99475.50;;;11.22;100.00
30554;BME280;17335;50.720;7.452;2022-09-12T01:00:10;99476.25;;;11.24;100.00
30554;BME280;17335;50.720;7.452;2022-09-12T01:02:43;99480.06;;;11.22;100.00
30554;BME280;17335;50.720;7.452;2022-09-12T01:05:11;99481.06;;;11.21;100.00
30554;BME280;17335;50.720;7.452;2022-09-12T01:07:39;99481.91;;;11.21;100.00
30554;BME280;17335;50.720;7.452;2022-09-12T01:10:08;99479.50;;;11.18;100.00
30554;BME280;17335;50.720;7.452;2022-09-12T01:12:38;99475.41;;;11.14;100.00
30554;BME280;17335;50.720;7.452;2022-09-12T01:15:06;99477.38;;;11.22;100.00
30554;BME280;17335;50.720;7.452;2022-09-12T01:23:32;99477.50;;;11.20;100.00
30554;BME280;17335;50.720;7.452;2022-09-12T01:26:30;99481.34;;;11.18;100.00
30554;BME280;17335;50.720;7.452;2022-09-12T01:31:48;99479.91;;;11.23;100.00
30554;BME280;17335;50.720;7.452;2022-09-12T01:35:14;99465.50;;;11.24;100.00
30554;BME280;17335;50.720;7.452;2022-09-12T01:40:17;99481.28;;;11.27;100.00
30554;BME280;17335;50.720;7.452;2022-09-12T01:42:59;99480.59;;;11.25;100.00
30554;BME280;17335;50.720;7.452;2022-09-12T01:45:43;99478.63;;;11.27;100.00
30554;BME280;17335;50.720;7.452;2022-09-12T01:48:33;99482.31;;;11.26;100.00
30554;BME280;17335;50.720;7.452;2022-09-12T01:51:10;99478.19;;;11.22;100.00
30554;BME280;17335;50.720;7.452;2022-09-12T01:53:41;99475.28;;;11.16;100.00
30554;BME280;17335;50.720;7.452;2022-09-12T01:56:17;99476.81;;;11.18;100.00
30554;BME280;17335;50.720;7.452;2022-09-12T01:59:00;99470.03;;;11.14;100.00
30554;BME280;17335;50.720;7.452;2022-09-12T02:01:30;99472.31;;;11.09;100.00
30554;BME280;17335;50.720;7.452;2022-09-12T02:04:15;99461.31;;;11.02;100.00
30554;BME280;17335;50.720;7.452;2022-09-12T02:09:27;99464.13;;;11.01;100.00
30554;BME280;17335;50.720;7.452;2022-09-12T02:11:59;99460.03;;;10.97;100.00
30554;BME280;17335;50.720;7.452;2022-09-12T02:14:51;99462.00;;;10.95;100.00
30554;BME280;17335;50.720;7.452;2022-09-12T02:17:21;99458.22;;;10.87;100.00
30554;BME280;17335;50.720;7.452;2022-09-12T02:19:53;99460.91;;;10.87;100.00
30554;BME280;17335;50.720;7.452;2022-09-12T02:22:22;99459.38;;;10.85;100.00
30554;BME280;17335;50.720;7.452;2022-09-12T02:24:51;99460.34;;;10.84;100.00
30554;BME280;17335;50.720;7.452;2022-09-12T02:30:12;99460.19;;;10.76;100.00
30554;BME280;17335;50.720;7.452;2022-09-12T02:33:06;99464.72;;;10.75;100.00
30554;BME280;17335;50.720;7.452;2022-09-12T02:35:49;99457.66;;;10.74;100.00
30554;BME280;17335;50.720;7.452;2022-09-12T02:38:25;99458.06;;;10.79;100.00
30554;BME280;17335;50.720;7.452;2022-09-12T02:40:55;99458.38;;;10.76;100.00
30554;BME280;17335;50.720;7.452;2022-09-12T02:43:22;99458.38;;;10.66;100.00
30554;BME280;17335;50.720;7.452;2022-09-12T02:45:49;99455.13;;;10.63;100.00
30554;BME280;17335;50.720;7.452;2022-09-12T02:48:21;99451.44;;;10.64;100.00
30554;BME280;17335;50.720;7.452;2022-09-12T02:50:50;99458.53;;;10.65;100.00
30554;BME280;17335;50.720;7.452;2022-09-12T02:53:17;99446.81;;;10.66;100.00
30554;BME280;17335;50.720;7.452;2022-09-12T02:55:43;99445.94;;;10.65;100.00
30554;BME280;17335;50.720;7.452;2022-09-12T02:58:16;99441.28;;;10.67;100.00
30554;BME280;17335;50.720;7.452;2022-09-12T03:01:01;99448.47;;;10.67;100.00
30554;BME280;17335;50.720;7.452;2022-09-12T03:06:16;99434.50;;;10.63;100.00
30554;BME280;17335;50.720;7.452;2022-09-12T03:08:57;99435.75;;;10.69;100.00
30554;BME280;17335;50.720;7.452;2022-09-12T03:14:25;99439.03;;;10.63;100.00
30554;BME280;17335;50.720;7.452;2022-09-12T03:17:11;99437.91;;;10.56;100.00
30554;BME280;17335;50.720;7.452;2022-09-12T03:20:04;99441.56;;;10.55;100.00
30554;BME280;17335;50.720;7.452;2022-09-12T03:27:50;99437.59;;;10.59;100.00
30554;BME280;17335;50.720;7.452;2022-09-12T03:30:19;99444.81;;;10.68;100.00
30554;BME280;17335;50.720;7.452;2022-09-12T03:32:49;99441.03;;;10.61;100.00
30554;BME280;17335;50.720;7.452;2022-09-12T03:35:18;99444.13;;;10.56;100.00
30554;BME280;17335;50.720;7.452;2022-09-12T03:37:50;99443.41;;;10.54;100.00
30554;BME280;17335;50.720;7.452;2022-09-12T03:40:16;99443.28;;;10.46;100.00
30554;BME280;17335;50.720;7.452;2022-09-12T03:42:43;99446.94;;;10.45;100.00
30554;BME280;17335;50.720;7.452;2022-09-12T03:45:10;99443.41;;;10.44;100.00
30554;BME280;17335;50.720;7.452;2022-09-12T03:47:37;99446.94;;;10.45;100.00
30554;BME280;17335;50.720;7.452;2022-09-12T03:50:04;99443.69;;;10.51;100.00
30554;BME280;17335;50.720;7.452;2022-09-12T03:52:32;99444.81;;;10.48;100.00
30554;BME280;17335;50.720;7.452;2022-09-12T03:54:58;99443.84;;;10.49;100.00
30554;BME280;17335;50.720;7.452;2022-09-12T03:57:25;99449.22;;;10.49;100.00
30554;BME280;17335;50.720;7.452;2022-09-12T03:59:51;99446.25;;;10.53;100.00
30554;BME280;17335;50.720;7.452;2022-09-12T04:02:18;99436.63;;;10.50;100.00
30554;BME280;17335;50.720;7.452;2022-09-12T04:04:44;99444.38;;;10.43;100.00
30554;BME280;17335;50.720;7.452;2022-09-12T04:07:15;99438.59;;;10.38;100.00
30554;BME280;17335;50.720;7.452;2022-09-12T04:09:41;99444.69;;;10.40;100.00
30554;BME280;17335;50.720;7.452;2022-09-12T04:12:08;99441.00;;;10.41;100.00
30554;BME280;17335;50.720;7.452;2022-09-12T04:14:36;99441.16;;;10.40;100.00
30554;BME280;17335;50.720;7.452;2022-09-12T04:17:03;99434.09;;;10.39;100.00
30554;BME280;17335;50.720;7.452;2022-09-12T04:19:30;99431.13;;;10.42;100.00
30554;BME280;17335;50.720;7.452;2022-09-12T04:21:56;99435.63;;;10.41;100.00
30554;BME280;17335;50.720;7.452;2022-09-12T04:24:23;99427.44;;;10.43;100.00
30554;BME280;17335;50.720;7.452;2022-09-12T04:26:50;99429.03;;;10.45;100.00
30554;BME280;17335;50.720;7.452;2022-09-12T04:29:16;99427.16;;;10.36;100.00
30554;BME280;17335;50.720;7.452;2022-09-12T04:31:43;99430.00;;;10.35;100.00
30554;BME280;17335;50.720;7.452;2022-09-12T04:34:09;99434.25;;;10.37;100.00
30554;BME280;17335;50.720;7.452;2022-09-12T04:36:36;99427.16;;;10.36;100.00
30554;BME280;17335;50.720;7.452;2022-09-12T04:39:03;99429.00;;;10.36;100.00
30554;BME280;17335;50.720;7.452;2022-09-12T04:41:33;99431.38;;;10.29;100.00
30554;BME280;17335;50.720;7.452;2022-09-12T04:44:07;99433.09;;;10.30;100.00
30554;BME280;17335;50.720;7.452;2022-09-12T04:46:38;99431.38;;;10.29;100.00
30554;BME280;17335;50.720;7.452;2022-09-12T04:49:05;99421.19;;;10.23;100.00
30554;BME280;17335;50.720;7.452;2022-09-12T04:51:34;99422.19;;;10.22;100.00
30554;BME280;17335;50.720;7.452;2022-09-12T04:54:06;99424.03;;;10.21;100.00
30554;BME280;17335;50.720;7.452;2022-09-12T04:56:37;99415.13;;;10.30;100.00
30554;BME280;17335;50.720;7.452;2022-09-12T04:59:04;99419.66;;;10.30;100.00
30554;BME280;17335;50.720;7.452;2022-09-12T05:01:30;99422.63;;;10.27;100.00
30554;BME280;17335;50.720;7.452;2022-09-12T05:03:57;99420.91;;;10.26;100.00
30554;BME280;17335;50.720;7.452;2022-09-12T05:06:27;99419.09;;;10.26;100.00
30554;BME280;17335;50.720;7.452;2022-09-12T05:08:55;99419.81;;;10.28;100.00
30554;BME280;17335;50.720;7.452;2022-09-12T05:11:29;99423.31;;;10.29;100.00
30554;BME280;17335;50.720;7.452;2022-09-12T05:14:16;99416.56;;;10.35;100.00
30554;BME280;17335;50.720;7.452;2022-09-12T05:16:42;99417.31;;;10.37;100.00
30554;BME280;17335;50.720;7.452;2022-09-12T05:19:14;99421.34;;;10.31;100.00
30554;BME280;17335;50.720;7.452;2022-09-12T05:21:41;99422.94;;;10.34;100.00
30554;BME280;17335;50.720;7.452;2022-09-12T05:24:09;99428.72;;;10.39;100.00
30554;BME280;17335;50.720;7.452;2022-09-12T05:26:36;99418.28;;;10.36;100.00
30554;BME280;17335;50.720;7.452;2022-09-12T05:29:03;99420.41;;;10.42;100.00
30554;BME280;17335;50.720;7.452;2022-09-12T05:31:31;99419.13;;;10.36;100.00
30554;BME280;17335;50.720;7.452;2022-09-12T05:33:57;99407.13;;;10.40;100.00
30554;BME280;17335;50.720;7.452;2022-09-12T05:36:26;99411.63;;;10.40;100.00
30554;BME280;17335;50.720;7.452;2022-09-12T05:38:54;99410.22;;;10.45;100.00
30554;BME280;17335;50.720;7.452;2022-09-12T05:41:24;99412.19;;;10.43;100.00
30554;BME280;17335;50.720;7.452;2022-09-12T05:43:54;99408.53;;;10.44;100.00
30554;BME280;17335;50.720;7.452;2022-09-12T05:46:25;99417.84;;;10.50;100.00
30554;BME280;17335;50.720;7.452;2022-09-12T05:48:52;99410.91;;;10.57;100.00
30554;BME280;17335;50.720;7.452;2022-09-12T05:51:26;99409.63;;;10.71;100.00
30554;BME280;17335;50.720;7.452;2022-09-12T05:53:58;99410.19;;;10.75;100.00
30554;BME280;17335;50.720;7.452;2022-09-12T05:56:27;99418.81;;;10.78;100.00
30554;BME280;17335;50.720;7.452;2022-09-12T05:58:55;99421.44;;;10.88;100.00
30554;BME280;17335;50.720;7.452;2022-09-12T06:01:22;99417.91;;;10.97;100.00
30554;BME280;17335;50.720;7.452;2022-09-12T06:03:51;99414.88;;;11.10;100.00
30554;BME280;17335;50.720;7.452;2022-09-12T06:06:19;99411.53;;;10.98;100.00
30554;BME280;17335;50.720;7.452;2022-09-12T06:08:48;99408.97;;;11.06;100.00
30554;BME280;17335;50.720;7.452;2022-09-12T06:11:24;99410.94;;;11.14;100.00
30554;BME280;17335;50.720;7.452;2022-09-12T06:13:57;99417.13;;;11.24;100.00
30554;BME280;17335;50.720;7.452;2022-09-12T06:16:26;99420.47;;;11.36;100.00
30554;BME280;17335;50.720;7.452;2022-09-12T06:18:55;99419.72;;;11.44;100.00
30554;BME280;17335;50.720;7.452;2022-09-12T06:21:23;99418.09;;;11.61;100.00
30554;BME280;17335;50.720;7.452;2022-09-12T06:23:54;99414.44;;;11.80;100.00
30554;BME280;17335;50.720;7.452;2022-09-12T06:26:21;99410.25;;;11.95;100.00
30554;BME280;17335;50.720;7.452;2022-09-12T06:28:52;99414.13;;;12.11;100.00
30554;BME280;17335;50.720;7.452;2022-09-12T06:31:24;99416.91;;;12.19;100.00
30554;BME280;17335;50.720;7.452;2022-09-12T06:33:52;99428.63;;;12.36;100.00
30554;BME280;17335;50.720;7.452;2022-09-12T06:36:24;99429.47;;;12.54;100.00
30554;BME280;17335;50.720;7.452;2022-09-12T06:39:12;99419.41;;;12.56;100.00
30554;BME280;17335;50.720;7.452;2022-09-12T06:41:39;99413.63;;;12.69;100.00
30554;BME280;17335;50.720;7.452;2022-09-12T06:44:12;99414.59;;;12.86;100.00
30554;BME280;17335;50.720;7.452;2022-09-12T06:46:40;99417.22;;;13.04;100.00
30554;BME280;17335;50.720;7.452;2022-09-12T06:49:07;99415.84;;;13.26;100.00
30554;BME280;17335;50.720;7.452;2022-09-12T06:51:33;99417.63;;;13.44;100.00
30554;BME280;17335;50.720;7.452;2022-09-12T06:54:02;99417.84;;;13.50;100.00
30554;BME280;17335;50.720;7.452;2022-09-12T06:56:29;99410.47;;;13.61;100.00
30554;BME280;17335;50.720;7.452;2022-09-12T06:58:56;99407.47;;;13.72;100.00
30554;BME280;17335;50.720;7.452;2022-09-12T07:01:26;99404.81;;;13.88;100.00
30554;BME280;17335;50.720;7.452;2022-09-12T07:04:01;99399.78;;;14.02;100.00
30554;BME280;17335;50.720;7.452;2022-09-12T07:06:30;99400.81;;;14.17;100.00
30554;BME280;17335;50.720;7.452;2022-09-12T07:09:02;99383.44;;;14.28;100.00
30554;BME280;17335;50.720;7.452;2022-09-12T07:11:34;99384.28;;;14.37;100.00
30554;BME280;17335;50.720;7.452;2022-09-12T07:14:03;99381.09;;;14.50;100.00
30554;BME280;17335;50.720;7.452;2022-09-12T07:16:30;99376.56;;;14.58;100.00
30554;BME280;17335;50.720;7.452;2022-09-12T07:18:59;99380.28;;;14.74;100.00
30554;BME280;17335;50.720;7.452;2022-09-12T07:21:27;99377.75;;;14.80;100.00
30554;BME280;17335;50.720;7.452;2022-09-12T07:23:54;99373.81;;;14.91;100.00
30554;BME280;17335;50.720;7.452;2022-09-12T07:26:25;99378.34;;;15.07;100.00
30554;BME280;17335;50.720;7.452;2022-09-12T07:28:53;99367.19;;;15.10;100.00
30554;BME280;17335;50.720;7.452;2022-09-12T07:31:38;99372.06;;;15.23;100.00
30554;BME280;17335;50.720;7.452;2022-09-12T07:34:05;99372.31;;;15.36;100.00
30554;BME280;17335;50.720;7.452;2022-09-12T07:36:32;99376.84;;;15.52;100.00
30554;BME280;17335;50.720;7.452;2022-09-12T07:38:59;99374.56;;;15.64;100.00
30554;BME280;17335;50.720;7.452;2022-09-12T07:41:27;99375.91;;;15.68;100.00
30554;BME280;17335;50.720;7.452;2022-09-12T07:43:56;99370.25;;;15.86;100.00
30554;BME280;17335;50.720;7.452;2022-09-12T07:46:24;99362.63;;;15.90;100.00
30554;BME280;17335;50.720;7.452;2022-09-12T07:48:52;99364.75;;;16.03;100.00
30554;BME280;17335;50.720;7.452;2022-09-12T07:51:20;99366.84;;;16.16;100.00
30554;BME280;17335;50.720;7.452;2022-09-12T07:53:47;99361.91;;;16.19;100.00
30554;BME280;17335;50.720;7.452;2022-09-12T07:56:15;99362.97;;;16.33;100.00
30554;BME280;17335;50.720;7.452;2022-09-12T07:58:42;99372.75;;;16.42;100.00
30554;BME280;17335;50.720;7.452;2022-09-12T08:01:20;99378.75;;;16.53;100.00
30554;BME280;17335;50.720;7.452;2022-09-12T08:03:52;99370.56;;;16.61;100.00
30554;BME280;17335;50.720;7.452;2022-09-12T08:06:20;99371.97;;;16.72;100.00
30554;BME280;17335;50.720;7.452;2022-09-12T08:08:49;99367.75;;;16.69;100.00
30554;BME280;17335;50.720;7.452;2022-09-12T08:11:18;99371.53;;;16.83;100.00
30554;BME280;17335;50.720;7.452;2022-09-12T08:13:46;99379.78;;;16.90;100.00
30554;BME280;17335;50.720;7.452;2022-09-12T08:16:20;99376.63;;;17.01;100.00
30554;BME280;17335;50.720;7.452;2022-09-12T08:18:48;99358.88;;;17.13;100.00
30554;BME280;17335;50.720;7.452;2022-09-12T08:21:23;99369.34;;;17.16;100.00
30554;BME280;17335;50.720;7.452;2022-09-12T08:23:57;99365.88;;;17.22;100.00
30554;BME280;17335;50.720;7.452;2022-09-12T08:26:24;99376.00;;;17.29;100.00
30554;BME280;17335;50.720;7.452;2022-09-12T08:28:51;99367.09;;;17.35;100.00
30554;BME280;17335;50.720;7.452;2022-09-12T08:31:20;99361.84;;;17.48;100.00
30554;BME280;17335;50.720;7.452;2022-09-12T08:33:47;99368.75;;;17.66;100.00
30554;BME280;17335;50.720;7.452;2022-09-12T08:36:16;99358.91;;;17.79;100.00
30554;BME280;17335;50.720;7.452;2022-09-12T08:38:44;99358.22;;;17.92;100.00
30554;BME280;17335;50.720;7.452;2022-09-12T08:46:51;99351.56;;;18.16;100.00
30554;BME280;17335;50.720;7.452;2022-09-12T08:49:28;99349.56;;;18.25;100.00
30554;BME280;17335;50.720;7.452;2022-09-12T08:51:59;99340.59;;;18.25;100.00
30554;BME280;17335;50.720;7.452;2022-09-12T08:54:27;99337.09;;;18.31;100.00
30554;BME280;17335;50.720;7.452;2022-09-12T08:57:00;99342.56;;;18.37;100.00
30554;BME280;17335;50.720;7.452;2022-09-12T08:59:40;99336.88;;;18.54;100.00
30554;BME280;17335;50.720;7.452;2022-09-12T09:05:06;99337.91;;;18.81;100.00
30554;BME280;17335;50.720;7.452;2022-09-12T09:13:57;99332.47;;;19.09;100.00
30554;BME280;17335;50.720;7.452;2022-09-12T09:16:50;99333.78;;;19.20;100.00
30554;BME280;17335;50.720;7.452;2022-09-12T09:19:29;99331.97;;;19.34;100.00
30554;BME280;17335;50.720;7.452;2022-09-12T09:22:07;99328.03;;;19.43;100.00
30554;BME280;17335;50.720;7.452;2022-09-12T09:24:51;99325.50;;;19.42;100.00
30554;BME280;17335;50.720;7.452;2022-09-12T09:30:17;99323.44;;;19.51;100.00
30554;BME280;17335;50.720;7.452;2022-09-12T09:32:53;99328.53;;;19.60;100.00
30554;BME280;17335;50.720;7.452;2022-09-12T09:35:24;99317.19;;;19.57;100.00
30554;BME280;17335;50.720;7.452;2022-09-12T09:38:00;99318.03;;;19.57;100.00
30554;BME280;17335;50.720;7.452;2022-09-12T09:40:39;99307.47;;;19.41;100.00
30554;BME280;17335;50.720;7.452;2022-09-12T09:45:39;99312.31;;;19.45;100.00
30554;BME280;17335;50.720;7.452;2022-09-12T09:50:49;99303.63;;;19.70;100.00
30554;BME280;17335;50.720;7.452;2022-09-12T09:53:40;99307.69;;;19.94;100.00
30554;BME280;17335;50.720;7.452;2022-09-12T09:59:28;99278.34;;;20.16;100.00
30554;BME280;17335;50.720;7.452;2022-09-12T10:04:51;99270.41;;;20.35;100.00
30554;BME280;17335;50.720;7.452;2022-09-12T10:07:19;99271.88;;;20.44;100.00
30554;BME280;17335;50.720;7.452;2022-09-12T10:10:22;99263.66;;;20.51;100.00
30554;BME280;17335;50.720;7.452;2022-09-12T10:12:50;99267.91;;;20.67;100.00
30554;BME280;17335;50.720;7.452;2022-09-12T10:15:23;99263.03;;;20.82;100.00
30554;BME280;17335;50.720;7.452;2022-09-12T10:17:53;99261.56;;;20.79;100.00
30554;BME280;17335;50.720;7.452;2022-09-12T10:20:41;99255.47;;;20.91;100.00
30554;BME280;17335;50.720;7.452;2022-09-12T10:23:33;99255.00;;;21.01;100.00
30554;BME280;17335;50.720;7.452;2022-09-12T10:26:07;99261.03;;;21.16;100.00
30554;BME280;17335;50.720;7.452;2022-09-12T10:28:38;99252.41;;;21.19;100.00
30554;BME280;17335;50.720;7.452;2022-09-12T10:31:07;99251.19;;;21.15;100.00
30554;BME280;17335;50.720;7.452;2022-09-12T10:33:44;99253.63;;;21.30;100.00
30554;BME280;17335;50.720;7.452;2022-09-12T10:36:13;99244.09;;;21.46;100.00
30554;BME280;17335;50.720;7.452;2022-09-12T10:38:48;99247.19;;;21.63;100.00
30554;BME280;17335;50.720;7.452;2022-09-12T10:41:16;99242.47;;;21.77;100.00
30554;BME280;17335;50.720;7.452;2022-09-12T10:43:44;99235.59;;;21.67;100.00
30554;BME280;17335;50.720;7.452;2022-09-12T10:48:48;99235.94;;;21.78;100.00
30554;BME280;17335;50.720;7.452;2022-09-12T10:53:53;99223.94;;;21.85;100.00
30554;BME280;17335;50.720;7.452;2022-09-12T10:56:22;99216.69;;;21.98;100.00
30554;BME280;17335;50.720;7.452;2022-09-12T11:07:19;99209.16;;;22.18;100.00
30554;BME280;17335;50.720;7.452;2022-09-12T11:12:35;99208.38;;;22.36;100.00
30554;BME280;17335;50.720;7.452;2022-09-12T11:23:56;99200.25;;;22.48;100.00
30554;BME280;17335;50.720;7.452;2022-09-12T11:29:11;99190.09;;;22.92;100.00
30554;BME280;17335;50.720;7.452;2022-09-12T11:31:48;99181.59;;;23.00;100.00
30554;BME280;17335;50.720;7.452;2022-09-12T11:34:49;99176.09;;;23.00;100.00
30554;BME280;17335;50.720;7.452;2022-09-12T11:45:53;99169.84;;;23.30;100.00
30554;BME280;17335;50.720;7.452;2022-09-12T11:48:34;99162.44;;;23.31;100.00
30554;BME280;17335;50.720;7.452;2022-09-12T11:51:05;99166.28;;;23.30;100.00
30554;BME280;17335;50.720;7.452;2022-09-12T11:53:37;99168.13;;;22.99;100.00
30554;BME280;17335;50.720;7.452;2022-09-12T11:56:14;99155.25;;;22.99;100.00
30554;BME280;17335;50.720;7.452;2022-09-12T11:58:48;99156.09;;;23.18;100.00
30554;BME280;17335;50.720;7.452;2022-09-12T12:01:21;99160.38;;;23.14;100.00
30554;BME280;17335;50.720;7.452;2022-09-12T12:03:50;99161.78;;;23.17;100.00
30554;BME280;17335;50.720;7.452;2022-09-12T12:06:31;99149.31;;;23.21;100.00
30554;BME280;17335;50.720;7.452;2022-09-12T12:08:59;99148.06;;;23.35;100.00
30554;BME280;17335;50.720;7.452;2022-09-12T12:11:38;99138.78;;;23.36;100.00
30554;BME280;17335;50.720;7.452;2022-09-12T12:14:20;99152.97;;;23.15;100.00
30554;BME280;17335;50.720;7.452;2022-09-12T12:16:48;99138.38;;;23.21;100.00
30554;BME280;17335;50.720;7.452;2022-09-12T12:21:48;99134.19;;;23.18;100.00
30554;BME280;17335;50.720;7.452;2022-09-12T12:24:19;99143.41;;;23.36;100.00
30554;BME280;17335;50.720;7.452;2022-09-12T12:34:36;99133.44;;;23.95;100.00
30554;BME280;17335;50.720;7.452;2022-09-12T12:44:58;99116.88;;;24.02;95.33
30554;BME280;17335;50.720;7.452;2022-09-12T12:50:20;99111.16;;;24.04;91.16
30554;BME280;17335;50.720;7.452;2022-09-12T12:53:01;99104.22;;;24.13;91.50
30554;BME280;17335;50.720;7.452;2022-09-12T12:58:02;99091.78;;;24.22;88.86
30554;BME280;17335;50.720;7.452;2022-09-12T13:03:43;99091.31;;;24.25;93.09
30554;BME280;17335;50.720;7.452;2022-09-12T13:05:55;99087.16;;;24.23;86.45
30554;BME280;17335;50.720;7.452;2022-09-12T13:08:32;99075.72;;;24.26;87.45
30554;BME280;17335;50.720;7.452;2022-09-12T13:11:13;99070.28;;;24.43;88.76
30554;BME280;17335;50.720;7.452;2022-09-12T13:14:01;99071.03;;;24.50;91.44
30554;BME280;17335;50.720;7.452;2022-09-12T13:16:36;99065.19;;;24.46;85.48
30554;BME280;17335;50.720;7.452;2022-09-12T13:19:13;99064.47;;;24.39;80.54
30554;BME280;17335;50.720;7.452;2022-09-12T13:21:59;99056.00;;;24.41;85.12
30554;BME280;17335;50.720;7.452;2022-09-12T13:24:26;99049.19;;;24.43;90.48
30554;BME280;17335;50.720;7.452;2022-09-12T13:26:54;99052.06;;;24.48;87.18
30554;BME280;17335;50.720;7.452;2022-09-12T13:29:25;99046.03;;;24.63;91.43
30554;BME280;17335;50.720;7.452;2022-09-12T13:32:01;99046.16;;;24.68;91.76
30554;BME280;17335;50.720;7.452;2022-09-12T13:34:31;99038.00;;;24.74;92.13
30554;BME280;17335;50.720;7.452;2022-09-12T13:44:48;99036.25;;;24.67;89.50
30554;BME280;17335;50.720;7.452;2022-09-12T13:47:24;99029.81;;;24.62;81.57
30554;BME280;17335;50.720;7.452;2022-09-12T13:49:53;99034.19;;;24.75;92.84
30554;BME280;17335;50.720;7.452;2022-09-12T13:52:23;99028.03;;;24.67;88.42
30554;BME280;17335;50.720;7.452;2022-09-12T13:54:53;99020.28;;;24.64;88.96
30554;BME280;17335;50.720;7.452;2022-09-12T13:57:37;99017.63;;;24.69;90.73
30554;BME280;17335;50.720;7.452;2022-09-12T14:00:12;99020.97;;;24.71;90.09
30554;BME280;17335;50.720;7.452;2022-09-12T14:02:46;99027.22;;;24.84;96.15
30554;BME280;17335;50.720;7.452;2022-09-12T14:05:20;99026.34;;;24.95;94.38
30554;BME280;17335;50.720;7.452;2022-09-12T14:07:49;99026.41;;;24.83;82.69
30554;BME280;17335;50.720;7.452;2022-09-12T14:10:28;99017.44;;;24.88;91.49
30554;BME280;17335;50.720;7.452;2022-09-12T14:13:00;99011.19;;;24.76;91.78
30554;BME280;17335;50.720;7.452;2022-09-12T14:15:31;99010.06;;;24.77;88.95
30554;BME280;17335;50.720;7.452;2022-09-12T14:18:00;99007.22;;;24.71;90.98
30554;BME280;17335;50.720;7.452;2022-09-12T14:20:29;99014.94;;;24.86;86.42
30554;BME280;17335;50.720;7.452;2022-09-12T14:23:46;99013.09;;;24.92;85.39
30554;BME280;17335;50.720;7.452;2022-09-12T14:25:54;99008.44;;;24.93;89.18
30554;BME280;17335;50.720;7.452;2022-09-12T14:28:22;99007.66;;;25.09;94.15
30554;BME280;17335;50.720;7.452;2022-09-12T14:31:01;99007.97;;;25.13;89.47
30554;BME280;17335;50.720;7.452;2022-09-12T14:33:32;99012.50;;;25.19;89.42
30554;BME280;17335;50.720;7.452;2022-09-12T14:38:53;99009.66;;;25.14;85.26
30554;BME280;17335;50.720;7.452;2022-09-12T14:41:23;99002.47;;;25.13;85.62
30554;BME280;17335;50.720;7.452;2022-09-12T14:43:59;99004.31;;;25.07;84.72
30554;BME280;17335;50.720;7.452;2022-09-12T14:46:31;98996.91;;;25.07;86.06
30554;BME280;17335;50.720;7.452;2022-09-12T14:49:06;98993.25;;;25.19;91.37
30554;BME280;17335;50.720;7.452;2022-09-12T14:51:36;98998.63;;;25.25;82.33
30554;BME280;17335;50.720;7.452;2022-09-12T14:54:03;98995.00;;;25.25;82.24
30554;BME280;17335;50.720;7.452;2022-09-12T14:56:42;98987.50;;;25.03;79.24
30554;BME280;17335;50.720;7.452;2022-09-12T15:05:00;98974.03;;;25.19;89.47
30554;BME280;17335;50.720;7.452;2022-09-12T15:10:35;98963.22;;;25.12;85.84
30554;BME280;17335;50.720;7.452;2022-09-12T15:13:11;98960.03;;;25.03;80.60
30554;BME280;17335;50.720;7.452;2022-09-12T15:15:41;98958.28;;;24.97;88.37
30554;BME280;17335;50.720;7.452;2022-09-12T15:18:08;98954.88;;;24.90;90.84
30554;BME280;17335;50.720;7.452;2022-09-12T15:20:37;98958.25;;;24.80;88.35
30554;BME280;17335;50.720;7.452;2022-09-12T15:23:08;98946.09;;;24.59;91.94
30554;BME280;17335;50.720;7.452;2022-09-12T15:25:36;98957.53;;;24.56;90.95
30554;BME280;17335;50.720;7.452;2022-09-12T15:28:10;98953.97;;;24.56;84.99
30554;BME280;17335;50.720;7.452;2022-09-12T15:30:40;98950.78;;;24.47;83.92
30554;BME280;17335;50.720;7.452;2022-09-12T15:33:08;98947.31;;;24.51;89.58
30554;BME280;17335;50.720;7.452;2022-09-12T15:35:34;98951.59;;;24.47;87.75
30554;BME280;17335;50.720;7.452;2022-09-12T15:38:01;98949.56;;;24.43;93.26